sensor_id;sensor_type;location;lat;lon;timestamp;pressure;altitude;pressure_sealevel;temperature;humidity
19759;BME280;10038;42.662;23.278;2022-10-17T00:00:43;71418.59;;;6.99;96.48
19759;BME280;10038;42.662;23.278;2022-10-17T00:03:12;71410.31;;;6.97;96.71
19759;BME280;10038;42.662;23.278;2022-10-17T00:05:40;71395.72;;;6.82;96.96
19759;BME280;10038;42.662;23.278;2022-10-17T00:08:07;71351.94;;;6.43;97.04
19759;BME280;10038;42.662;23.278;2022-10-17T00:10:34;71383.63;;;6.71;97.60
19759;BME280;10038;42.662;23.278;2022-10-17T00:13:01;71373.84;;;6.63;98.22
19759;BME280;10038;42.662;23.278;2022-10-17T00:15:28;71371.72;;;6.63;98.80
19759;BME280;10038;42.662;23.278;2022-10-17T00:17:55;71389.38;;;6.76;98.45
19759;BME280;10038;42.662;23.278;2022-10-17T00:20:23;71394.97;;;6.79;98.57
19759;BME280;10038;42.662;23.278;2022-10-17T00:22:50;71308.78;;;6.06;98.14
19759;BME280;10038;42.662;23.278;2022-10-17T00:25:18;71370.41;;;6.52;98.53
19759;BME280;10038;42.662;23.278;2022-10-17T00:27:44;71368.88;;;6.53;99.02
19759;BME280;10038;42.662;23.278;2022-10-17T00:30:14;71381.31;;;6.69;98.25
19759;BME280;10038;42.662;23.278;2022-10-17T00:32:40;71358.09;;;6.46;99.13
19759;BME280;10038;42.662;23.278;2022-10-17T00:35:08;71369.25;;;6.59;98.61
19759;BME280;10038;42.662;23.278;2022-10-17T00:37:36;71360.78;;;6.53;98.80
19759;BME280;10038;42.662;23.278;2022-10-17T00:40:04;71350.81;;;6.42;99.27
19759;BME280;10038;42.662;23.278;2022-10-17T00:42:31;71364.44;;;6.52;98.70
19759;BME280;10038;42.662;23.278;2022-10-17T00:45:17;71360.41;;;6.48;98.55
19759;BME280;10038;42.662;23.278;2022-10-17T00:47:47;71349.47;;;6.32;99.38
19759;BME280;10038;42.662;23.278;2022-10-17T00:50:14;71340.84;;;6.31;99.41
19759;BME280;10038;42.662;23.278;2022-10-17T00:52:43;71341.41;;;6.32;99.59
19759;BME280;10038;42.662;23.278;2022-10-17T00:55:16;71340.84;;;6.31;99.26
19759;BME280;10038;42.662;23.278;2022-10-17T00:57:44;71342.91;;;6.38;99.52
19759;BME280;10038;42.662;23.278;2022-10-17T01:00:12;71339.84;;;6.33;99.41
19759;BME280;10038;42.662;23.278;2022-10-17T01:02:39;71329.88;;;6.22;99.98
19759;BME280;10038;42.662;23.278;2022-10-17T01:05:07;71337.56;;;6.31;99.85
19759;BME280;10038;42.662;23.278;2022-10-17T01:07:35;71324.31;;;6.19;100.00
19759;BME280;10038;42.662;23.278;2022-10-17T01:10:06;71327.97;;;6.18;100.00
19759;BME280;10038;42.662;23.278;2022-10-17T01:12:40;71328.94;;;6.23;100.00
19759;BME280;10038;42.662;23.278;2022-10-17T01:15:13;71346.97;;;6.34;99.88
19759;BME280;10038;42.662;23.278;2022-10-17T01:17:52;71337.19;;;6.26;99.94
19759;BME280;10038;42.662;23.278;2022-10-17T01:23:26;71315.69;;;6.12;100.00
19759;BME280;10038;42.662;23.278;2022-10-17T01:26:02;71309.75;;;6.04;100.00
19759;BME280;10038;42.662;23.278;2022-10-17T01:28:53;71309.94;;;6.07;100.00
19759;BME280;10038;42.662;23.278;2022-10-17T01:31:31;71310.50;;;6.00;100.00
19759;BME280;10038;42.662;23.278;2022-10-17T01:34:05;71308.00;;;6.03;100.00
19759;BME280;10038;42.662;23.278;2022-10-17T01:36:41;71311.06;;;6.08;100.00
19759;BME280;10038;42.662;23.278;2022-10-17T01:39:16;71308.41;;;6.01;100.00
19759;BME280;10038;42.662;23.278;2022-10-17T01:41:51;71295.34;;;5.91;100.00
19759;BME280;10038;42.662;23.278;2022-10-17T01:44:21;71308.59;;;6.03;100.00
19759;BME280;10038;42.662;23.278;2022-10-17T01:46:59;71306.09;;;5.99;100.00
19759;BME280;10038;42.662;23.278;2022-10-17T01:49:30;71314.53;;;6.11;100.00
19759;BME280;10038;42.662;23.278;2022-10-17T01:52:03;71319.31;;;6.10;100.00
19759;BME280;10038;42.662;23.278;2022-10-17T01:54:36;71309.94;;;6.07;100.00
19759;BME280;10038;42.662;23.278;2022-10-17T01:57:09;71305.13;;;6.00;100.00
19759;BME280;10038;42.662;23.278;2022-10-17T01:59:39;71289.59;;;5.86;100.00
19759;BME280;10038;42.662;23.278;2022-10-17T02:02:09;71294.38;;;5.86;100.00
19759;BME280;10038;42.662;23.278;2022-10-17T02:04:37;71297.44;;;5.91;100.00
19759;BME280;10038;42.662;23.278;2022-10-17T02:07:07;71284.94;;;5.82;100.00
19759;BME280;10038;42.662;23.278;2022-10-17T02:09:34;71292.66;;;5.91;100.00
19759;BME280;10038;42.662;23.278;2022-10-17T02:15:02;71282.84;;;5.83;100.00
19759;BME280;10038;42.662;23.278;2022-10-17T02:17:42;71275.38;;;5.76;100.00
19759;BME280;10038;42.662;23.278;2022-10-17T02:20:16;71298.81;;;5.94;100.00
19759;BME280;10038;42.662;23.278;2022-10-17T02:22:49;71286.69;;;5.84;100.00
19759;BME280;10038;42.662;23.278;2022-10-17T02:25:23;71279.97;;;5.80;100.00
19759;BME280;10038;42.662;23.278;2022-10-17T02:27:57;71264.25;;;5.64;100.00
19759;BME280;10038;42.662;23.278;2022-10-17T02:30:30;71255.81;;;5.59;100.00
19759;BME280;10038;42.662;23.278;2022-10-17T02:33:03;71261.56;;;5.57;100.00
19759;BME280;10038;42.662;23.278;2022-10-17T02:35:34;71270.00;;;5.69;100.00
19759;BME280;10038;42.662;23.278;2022-10-17T02:38:03;71264.44;;;5.67;100.00
19759;BME280;10038;42.662;23.278;2022-10-17T02:40:31;71271.53;;;5.75;100.00
19759;BME280;10038;42.662;23.278;2022-10-17T02:42:59;71268.09;;;5.65;100.00
19759;BME280;10038;42.662;23.278;2022-10-17T02:45:28;71267.69;;;5.67;100.00
19759;BME280;10038;42.662;23.278;2022-10-17T02:48:03;71250.63;;;5.55;100.00
19759;BME280;10038;42.662;23.278;2022-10-17T02:50:37;71271.53;;;5.68;100.00
19759;BME280;10038;42.662;23.278;2022-10-17T02:53:13;71259.06;;;5.60;100.00
19759;BME280;10038;42.662;23.278;2022-10-17T02:55:44;71258.88;;;5.57;100.00
19759;BME280;10038;42.662;23.278;2022-10-17T02:58:18;71265.41;;;5.65;100.00
19759;BME280;10038;42.662;23.278;2022-10-17T03:00:46;71243.16;;;5.48;100.00
19759;BME280;10038;42.662;23.278;2022-10-17T03:03:19;71263.09;;;5.63;100.00
19759;BME280;10038;42.662;23.278;2022-10-17T03:05:46;71254.47;;;5.56;100.00
19759;BME280;10038;42.662;23.278;2022-10-17T03:08:13;71246.59;;;5.51;100.00
19759;BME280;10038;42.662;23.278;2022-10-17T03:10:40;71237.97;;;5.44;100.00
19759;BME280;10038;42.662;23.278;2022-10-17T03:13:07;71244.50;;;5.45;100.00
19759;BME280;10038;42.662;23.278;2022-10-17T03:15:34;71192.16;;;4.99;100.00
19759;BME280;10038;42.662;23.278;2022-10-17T03:18:00;71247.38;;;5.47;100.00
19759;BME280;10038;42.662;23.278;2022-10-17T03:20:28;71257.72;;;5.56;100.00
19759;BME280;10038;42.662;23.278;2022-10-17T03:22:55;71263.09;;;5.63;100.00
19759;BME280;10038;42.662;23.278;2022-10-17T03:25:22;71252.75;;;5.54;100.00
19759;BME280;10038;42.662;23.278;2022-10-17T03:27:49;71246.22;;;5.46;100.00
19759;BME280;10038;42.662;23.278;2022-10-17T03:30:15;71248.91;;;5.53;100.00
19759;BME280;10038;42.662;23.278;2022-10-17T03:32:42;71243.16;;;5.48;100.00
19759;BME280;10038;42.662;23.278;2022-10-17T03:35:09;71235.47;;;5.39;100.00
19759;BME280;10038;42.662;23.278;2022-10-17T03:37:37;71224.38;;;5.27;100.00
19759;BME280;10038;42.662;23.278;2022-10-17T03:40:05;71200.59;;;5.11;100.00
19759;BME280;10038;42.662;23.278;2022-10-17T03:42:31;71213.59;;;5.20;100.00
19759;BME280;10038;42.662;23.278;2022-10-17T03:44:58;71185.03;;;4.97;100.00
19759;BME280;10038;42.662;23.278;2022-10-17T03:47:25;71200.75;;;5.06;100.00
19759;BME280;10038;42.662;23.278;2022-10-17T03:49:53;71209.38;;;5.14;100.00
19759;BME280;10038;42.662;23.278;2022-10-17T03:52:20;71218.22;;;5.24;100.00
19759;BME280;10038;42.662;23.278;2022-10-17T03:54:48;71219.34;;;5.25;100.00
19759;BME280;10038;42.662;23.278;2022-10-17T03:57:15;71203.63;;;5.09;100.00
19759;BME280;10038;42.662;23.278;2022-10-17T03:59:42;71221.09;;;5.26;100.00
19759;BME280;10038;42.662;23.278;2022-10-17T04:02:08;71217.81;;;5.26;100.00
19759;BME280;10038;42.662;23.278;2022-10-17T04:04:35;71153.44;;;4.69;100.00
19759;BME280;10038;42.662;23.278;2022-10-17T04:07:02;71214.38;;;5.23;100.00
19759;BME280;10038;42.662;23.278;2022-10-17T04:09:28;71199.41;;;5.10;100.00
19759;BME280;10038;42.662;23.278;2022-10-17T04:11:57;71216.09;;;5.17;100.00
19759;BME280;10038;42.662;23.278;2022-10-17T04:14:23;71206.91;;;5.16;100.00
19759;BME280;10038;42.662;23.278;2022-10-17T04:16:50;71200.75;;;5.06;100.00
19759;BME280;10038;42.662;23.278;2022-10-17T04:19:17;71177.38;;;4.95;100.00
19759;BME280;10038;42.662;23.278;2022-10-17T04:21:44;71183.91;;;4.96;100.00
19759;BME280;10038;42.662;23.278;2022-10-17T04:24:11;71110.28;;;4.32;100.00
19759;BME280;10038;42.662;23.278;2022-10-17T04:26:38;71196.72;;;5.03;100.00
19759;BME280;10038;42.662;23.278;2022-10-17T04:29:06;71198.25;;;5.09;100.00
19759;BME280;10038;42.662;23.278;2022-10-17T04:31:32;71208.25;;;5.13;100.00
19759;BME280;10038;42.662;23.278;2022-10-17T04:34:00;71187.72;;;4.97;100.00
19759;BME280;10038;42.662;23.278;2022-10-17T04:36:27;71174.13;;;4.88;100.00
19759;BME280;10038;42.662;23.278;2022-10-17T04:38:53;71174.88;;;4.84;100.00
19759;BME280;10038;42.662;23.278;2022-10-17T04:41:20;71133.88;;;4.52;100.00
19759;BME280;10038;42.662;23.278;2022-10-17T04:43:47;71201.91;;;5.07;100.00
19759;BME280;10038;42.662;23.278;2022-10-17T04:46:15;71208.03;;;5.17;100.00
19759;BME280;10038;42.662;23.278;2022-10-17T04:48:42;71216.88;;;5.20;100.00
19759;BME280;10038;42.662;23.278;2022-10-17T04:51:11;71112.59;;;4.34;100.00
19759;BME280;10038;42.662;23.278;2022-10-17T04:53:38;71207.47;;;5.17;100.00
19759;BME280;10038;42.662;23.278;2022-10-17T04:56:11;71218.59;;;5.22;100.00
19759;BME280;10038;42.662;23.278;2022-10-17T04:58:39;71215.72;;;5.19;100.00
19759;BME280;10038;42.662;23.278;2022-10-17T05:01:07;71192.91;;;5.02;100.00
19759;BME280;10038;42.662;23.278;2022-10-17T05:03:35;71214.94;;;5.23;100.00
19759;BME280;10038;42.662;23.278;2022-10-17T05:06:04;71227.25;;;5.29;100.00
19759;BME280;10038;42.662;23.278;2022-10-17T05:08:31;71228.94;;;5.31;100.00
19759;BME280;10038;42.662;23.278;2022-10-17T05:10:57;71234.16;;;5.35;100.00
19759;BME280;10038;42.662;23.278;2022-10-17T05:13:24;71238.53;;;5.44;100.00
19759;BME280;10038;42.662;23.278;2022-10-17T05:15:51;71257.16;;;5.56;100.00
19759;BME280;10038;42.662;23.278;2022-10-17T05:18:18;71248.31;;;5.53;100.00
19759;BME280;10038;42.662;23.278;2022-10-17T05:20:46;71253.13;;;5.52;100.00
19759;BME280;10038;42.662;23.278;2022-10-17T05:23:12;71245.25;;;5.48;100.00
19759;BME280;10038;42.662;23.278;2022-10-17T05:25:39;71256.00;;;5.55;100.00
19759;BME280;10038;42.662;23.278;2022-10-17T05:28:06;71190.63;;;5.00;100.00
19759;BME280;10038;42.662;23.278;2022-10-17T05:30:33;71198.06;;;5.06;100.00
19759;BME280;10038;42.662;23.278;2022-10-17T05:33:00;71284.22;;;5.79;100.00
19759;BME280;10038;42.662;23.278;2022-10-17T05:35:27;71256.38;;;5.60;100.00
19759;BME280;10038;42.662;23.278;2022-10-17T05:37:57;71301.09;;;5.97;100.00
19759;BME280;10038;42.662;23.278;2022-10-17T05:40:24;71299.19;;;5.92;100.00
19759;BME280;10038;42.662;23.278;2022-10-17T05:42:51;71315.09;;;6.11;99.36
19759;BME280;10038;42.662;23.278;2022-10-17T05:45:18;71307.63;;;6.05;99.10
19759;BME280;10038;42.662;23.278;2022-10-17T05:47:45;71326.44;;;6.19;98.93
19759;BME280;10038;42.662;23.278;2022-10-17T05:50:11;71337.16;;;6.33;98.20
19759;BME280;10038;42.662;23.278;2022-10-17T05:52:38;71352.91;;;6.42;98.05
19759;BME280;10038;42.662;23.278;2022-10-17T05:55:07;71350.03;;;6.39;97.75
19759;BME280;10038;42.662;23.278;2022-10-17T05:57:34;71354.47;;;6.41;97.77
19759;BME280;10038;42.662;23.278;2022-10-17T06:00:01;71346.41;;;6.34;98.30
19759;BME280;10038;42.662;23.278;2022-10-17T06:02:29;71347.53;;;6.42;98.06
19759;BME280;10038;42.662;23.278;2022-10-17T06:04:56;71352.91;;;6.49;97.64
19759;BME280;10038;42.662;23.278;2022-10-17T06:07:22;71365.97;;;6.58;97.44
19759;BME280;10038;42.662;23.278;2022-10-17T06:09:49;71383.22;;;6.73;96.47
19759;BME280;10038;42.662;23.278;2022-10-17T06:12:17;71381.72;;;6.67;96.15
19759;BME280;10038;42.662;23.278;2022-10-17T06:14:44;71365.56;;;6.60;96.35
19759;BME280;10038;42.662;23.278;2022-10-17T06:17:11;71368.66;;;6.58;97.09
19759;BME280;10038;42.662;23.278;2022-10-17T06:19:37;71383.84;;;6.67;96.86
19759;BME280;10038;42.662;23.278;2022-10-17T06:22:05;71384.78;;;6.72;96.57
19759;BME280;10038;42.662;23.278;2022-10-17T06:24:32;71400.34;;;6.86;95.61
19759;BME280;10038;42.662;23.278;2022-10-17T06:26:59;71423.94;;;7.06;95.26
19759;BME280;10038;42.662;23.278;2022-10-17T06:29:27;71422.22;;;7.05;95.06
19759;BME280;10038;42.662;23.278;2022-10-17T06:31:53;71438.94;;;7.20;95.00
19759;BME280;10038;42.662;23.278;2022-10-17T06:34:20;71405.31;;;6.95;94.62
19759;BME280;10038;42.662;23.278;2022-10-17T06:36:47;71457.75;;;7.34;94.20
19759;BME280;10038;42.662;23.278;2022-10-17T06:39:13;71458.53;;;7.37;93.98
19759;BME280;10038;42.662;23.278;2022-10-17T06:41:40;71472.38;;;7.49;93.35
19759;BME280;10038;42.662;23.278;2022-10-17T06:44:09;71474.66;;;7.51;93.56
19759;BME280;10038;42.662;23.278;2022-10-17T06:46:37;71499.44;;;7.72;93.26
19759;BME280;10038;42.662;23.278;2022-10-17T06:49:05;71442.56;;;7.25;92.39
19759;BME280;10038;42.662;23.278;2022-10-17T06:51:34;71532.31;;;8.01;91.66
19759;BME280;10038;42.662;23.278;2022-10-17T06:54:02;71538.66;;;8.07;92.28
19759;BME280;10038;42.662;23.278;2022-10-17T06:56:29;71569.25;;;8.34;91.24
19759;BME280;10038;42.662;23.278;2022-10-17T06:58:56;71617.13;;;8.75;90.02
19759;BME280;10038;42.662;23.278;2022-10-17T07:01:23;71762.00;;;10.09;83.97
19759;BME280;10038;42.662;23.278;2022-10-17T07:03:51;72180.09;;;13.71;72.39
19759;BME280;10038;42.662;23.278;2022-10-17T07:06:17;72546.28;;;16.99;58.43
19759;BME280;10038;42.662;23.278;2022-10-17T07:08:45;72864.91;;;19.75;49.92
19759;BME280;10038;42.662;23.278;2022-10-17T07:11:13;73152.75;;;22.24;41.96
19759;BME280;10038;42.662;23.278;2022-10-17T07:13:40;73377.72;;;24.24;35.65
19759;BME280;10038;42.662;23.278;2022-10-17T07:16:07;73396.84;;;24.38;34.23
19759;BME280;10038;42.662;23.278;2022-10-17T07:18:34;73585.72;;;26.03;32.42
19759;BME280;10038;42.662;23.278;2022-10-17T07:21:03;73815.09;;;28.01;30.15
19759;BME280;10038;42.662;23.278;2022-10-17T07:23:30;73884.78;;;28.61;28.17
19759;BME280;10038;42.662;23.278;2022-10-17T07:25:59;73773.53;;;27.65;28.33
19759;BME280;10038;42.662;23.278;2022-10-17T07:28:26;73695.09;;;26.98;29.79
19759;BME280;10038;42.662;23.278;2022-10-17T07:30:53;73710.19;;;27.08;29.37
19759;BME280;10038;42.662;23.278;2022-10-17T07:33:20;73853.59;;;28.32;28.14
19759;BME280;10038;42.662;23.278;2022-10-17T07:35:47;73885.94;;;28.62;27.17
19759;BME280;10038;42.662;23.278;2022-10-17T07:38:15;74000.19;;;29.60;26.90
19759;BME280;10038;42.662;23.278;2022-10-17T07:40:41;73826.22;;;28.10;27.53
19759;BME280;10038;42.662;23.278;2022-10-17T07:43:08;73950.97;;;29.18;26.25
19759;BME280;10038;42.662;23.278;2022-10-17T07:45:35;74146.78;;;30.86;24.76
19759;BME280;10038;42.662;23.278;2022-10-17T07:48:02;74159.13;;;30.97;24.17
19759;BME280;10038;42.662;23.278;2022-10-17T07:50:29;74165.56;;;31.03;24.59
19759;BME280;10038;42.662;23.278;2022-10-17T07:52:56;74109.84;;;30.55;24.78
19759;BME280;10038;42.662;23.278;2022-10-17T07:55:24;73931.63;;;29.01;25.78
19759;BME280;10038;42.662;23.278;2022-10-17T07:57:50;73918.75;;;28.90;26.87
19759;BME280;10038;42.662;23.278;2022-10-17T08:00:17;74001.94;;;29.62;25.21
19759;BME280;10038;42.662;23.278;2022-10-17T08:02:44;74187.84;;;31.22;23.72
19759;BME280;10038;42.662;23.278;2022-10-17T08:05:11;74360.44;;;32.70;23.16
19759;BME280;10038;42.662;23.278;2022-10-17T08:07:37;74463.47;;;33.63;22.06
19759;BME280;10038;42.662;23.278;2022-10-17T08:10:06;74335.28;;;32.51;23.25
19759;BME280;10038;42.662;23.278;2022-10-17T08:12:34;74190.78;;;31.24;23.53
19759;BME280;10038;42.662;23.278;2022-10-17T08:15:01;74030.09;;;29.86;25.12
19759;BME280;10038;42.662;23.278;2022-10-17T08:17:28;74047.69;;;30.01;24.92
19759;BME280;10038;42.662;23.278;2022-10-17T08:19:55;74085.66;;;30.31;24.46
19759;BME280;10038;42.662;23.278;2022-10-17T08:22:23;74305.81;;;32.23;22.41
19759;BME280;10038;42.662;23.278;2022-10-17T08:24:49;74395.66;;;33.00;22.83
19759;BME280;10038;42.662;23.278;2022-10-17T08:27:16;74267.06;;;31.90;23.06
19759;BME280;10038;42.662;23.278;2022-10-17T08:29:52;74301.69;;;32.20;22.41
19759;BME280;10038;42.662;23.278;2022-10-17T08:32:18;74386.38;;;32.95;21.39
19759;BME280;10038;42.662;23.278;2022-10-17T08:34:45;74409.91;;;33.15;21.51
19759;BME280;10038;42.662;23.278;2022-10-17T08:37:12;74536.81;;;34.24;20.56
19759;BME280;10038;42.662;23.278;2022-10-17T08:39:39;74368.19;;;32.79;21.93
19759;BME280;10038;42.662;23.278;2022-10-17T08:42:24;74355.16;;;32.65;21.14
19759;BME280;10038;42.662;23.278;2022-10-17T08:44:58;74453.47;;;33.55;20.50
19759;BME280;10038;42.662;23.278;2022-10-17T08:47:34;74452.88;;;33.54;21.22
19759;BME280;10038;42.662;23.278;2022-10-17T08:50:04;74434.44;;;33.34;21.47
19759;BME280;10038;42.662;23.278;2022-10-17T08:52:35;74349.84;;;32.61;21.01
19759;BME280;10038;42.662;23.278;2022-10-17T08:55:13;74388.59;;;32.94;21.12
19759;BME280;10038;42.662;23.278;2022-10-17T08:57:40;74479.22;;;33.74;21.01
19759;BME280;10038;42.662;23.278;2022-10-17T09:00:14;74490.25;;;33.81;21.09
19759;BME280;10038;42.662;23.278;2022-10-17T09:02:50;74398.00;;;33.02;20.50
19759;BME280;10038;42.662;23.278;2022-10-17T09:05:39;74409.78;;;33.12;20.37
19759;BME280;10038;42.662;23.278;2022-10-17T09:08:28;74429.72;;;33.30;21.16
19759;BME280;10038;42.662;23.278;2022-10-17T09:11:02;74335.88;;;32.51;21.85
19759;BME280;10038;42.662;23.278;2022-10-17T09:13:47;74274.09;;;31.96;21.50
19759;BME280;10038;42.662;23.278;2022-10-17T09:16:34;74444.06;;;33.47;20.54
19759;BME280;10038;42.662;23.278;2022-10-17T09:19:09;74430.91;;;33.31;20.74
19759;BME280;10038;42.662;23.278;2022-10-17T09:21:41;74490.25;;;33.81;19.81
19759;BME280;10038;42.662;23.278;2022-10-17T09:24:14;74519.88;;;34.12;20.08
19759;BME280;10038;42.662;23.278;2022-10-17T09:26:43;74479.22;;;33.74;20.67
19759;BME280;10038;42.662;23.278;2022-10-17T09:29:16;74527.88;;;34.14;20.01
19759;BME280;10038;42.662;23.278;2022-10-17T09:31:50;74241.25;;;31.68;21.75
19759;BME280;10038;42.662;23.278;2022-10-17T09:34:19;74171.44;;;31.08;21.00
19759;BME280;10038;42.662;23.278;2022-10-17T09:36:47;74375.69;;;32.83;20.54
19759;BME280;10038;42.662;23.278;2022-10-17T09:39:17;74497.88;;;33.88;19.71
19759;BME280;10038;42.662;23.278;2022-10-17T09:41:47;74403.31;;;33.07;19.39
19759;BME280;10038;42.662;23.278;2022-10-17T09:44:18;74271.19;;;31.93;20.25
19759;BME280;10038;42.662;23.278;2022-10-17T09:47:17;74311.13;;;32.28;19.72
19759;BME280;10038;42.662;23.278;2022-10-17T09:49:46;74372.75;;;32.81;20.26
19759;BME280;10038;42.662;23.278;2022-10-17T09:52:17;74302.41;;;32.23;19.53
19759;BME280;10038;42.662;23.278;2022-10-17T09:54:47;74355.16;;;32.65;19.34
19759;BME280;10038;42.662;23.278;2022-10-17T09:57:15;74390.50;;;32.98;17.90
19759;BME280;10038;42.662;23.278;2022-10-17T09:59:45;74392.72;;;32.98;17.80
19759;BME280;10038;42.662;23.278;2022-10-17T10:02:19;74332.22;;;32.46;18.38
19759;BME280;10038;42.662;23.278;2022-10-17T10:04:58;74303.59;;;32.24;17.94
19759;BME280;10038;42.662;23.278;2022-10-17T10:07:27;74294.81;;;32.16;17.49
19759;BME280;10038;42.662;23.278;2022-10-17T10:09:55;74183.75;;;31.18;18.91
19759;BME280;10038;42.662;23.278;2022-10-17T10:12:24;74243.59;;;31.70;18.70
19759;BME280;10038;42.662;23.278;2022-10-17T10:14:52;74181.41;;;31.16;18.84
19759;BME280;10038;42.662;23.278;2022-10-17T10:17:35;74253.00;;;31.78;18.53
19759;BME280;10038;42.662;23.278;2022-10-17T10:20:24;74164.97;;;31.02;18.75
19759;BME280;10038;42.662;23.278;2022-10-17T10:23:10;74214.84;;;31.45;18.81
19759;BME280;10038;42.662;23.278;2022-10-17T10:25:48;74272.22;;;31.92;18.11
19759;BME280;10038;42.662;23.278;2022-10-17T10:28:17;74183.75;;;31.18;18.58
19759;BME280;10038;42.662;23.278;2022-10-17T10:30:47;73990.84;;;29.52;20.10
19759;BME280;10038;42.662;23.278;2022-10-17T10:33:18;74084.59;;;30.33;18.87
19759;BME280;10038;42.662;23.278;2022-10-17T10:35:53;73934.00;;;29.03;19.75
19759;BME280;10038;42.662;23.278;2022-10-17T10:38:22;73885.34;;;28.61;20.61
19759;BME280;10038;42.662;23.278;2022-10-17T10:40:51;74014.84;;;29.73;21.24
19759;BME280;10038;42.662;23.278;2022-10-17T10:43:28;73923.44;;;28.94;20.88
19759;BME280;10038;42.662;23.278;2022-10-17T10:45:58;74098.56;;;30.43;19.99
19759;BME280;10038;42.662;23.278;2022-10-17T10:48:30;74105.16;;;30.51;20.45
19759;BME280;10038;42.662;23.278;2022-10-17T10:51:02;74077.44;;;30.24;19.45
19759;BME280;10038;42.662;23.278;2022-10-17T10:53:37;74186.09;;;31.20;18.84
19759;BME280;10038;42.662;23.278;2022-10-17T10:56:11;74227.19;;;31.56;18.39
19759;BME280;10038;42.662;23.278;2022-10-17T10:58:47;74073.47;;;30.23;19.21
19759;BME280;10038;42.662;23.278;2022-10-17T11:01:20;74101.03;;;30.47;19.29
19759;BME280;10038;42.662;23.278;2022-10-17T11:04:08;74127.44;;;30.70;18.97
19759;BME280;10038;42.662;23.278;2022-10-17T11:06:41;74074.63;;;30.24;19.77
19759;BME280;10038;42.662;23.278;2022-10-17T11:09:17;74043.44;;;29.95;19.43
19759;BME280;10038;42.662;23.278;2022-10-17T11:11:53;73912.16;;;28.82;20.98
19759;BME280;10038;42.662;23.278;2022-10-17T11:14:31;74052.38;;;30.05;20.13
19759;BME280;10038;42.662;23.278;2022-10-17T11:17:04;73955.53;;;29.19;20.24
19759;BME280;10038;42.662;23.278;2022-10-17T11:19:39;73897.09;;;28.72;20.52
19759;BME280;10038;42.662;23.278;2022-10-17T11:22:14;73951.28;;;29.13;20.74
19759;BME280;10038;42.662;23.278;2022-10-17T11:24:47;73905.28;;;28.79;20.37
19759;BME280;10038;42.662;23.278;2022-10-17T11:27:21;73956.28;;;29.22;20.41
19759;BME280;10038;42.662;23.278;2022-10-17T11:29:49;73893.31;;;28.63;19.71
19759;BME280;10038;42.662;23.278;2022-10-17T11:32:45;73878.66;;;28.51;20.29
19759;BME280;10038;42.662;23.278;2022-10-17T11:35:19;73898.84;;;28.73;20.90
19759;BME280;10038;42.662;23.278;2022-10-17T11:37:50;73933.28;;;29.00;20.60
19759;BME280;10038;42.662;23.278;2022-10-17T11:40:22;73912.16;;;28.82;19.95
19759;BME280;10038;42.662;23.278;2022-10-17T11:42:53;73934.44;;;29.01;19.98
19759;BME280;10038;42.662;23.278;2022-10-17T11:45:25;74003.84;;;29.66;19.41
19759;BME280;10038;42.662;23.278;2022-10-17T11:47:57;74129.66;;;30.69;18.52
19759;BME280;10038;42.662;23.278;2022-10-17T11:50:29;74136.09;;;30.75;18.72
19759;BME280;10038;42.662;23.278;2022-10-17T11:59:56;73966.81;;;29.32;20.27
19759;BME280;10038;42.662;23.278;2022-10-17T12:02:30;73917.00;;;28.89;20.01
19759;BME280;10038;42.662;23.278;2022-10-17T12:05:02;73860.47;;;28.35;20.73
19759;BME280;10038;42.662;23.278;2022-10-17T12:07:37;73786.72;;;27.72;21.46
19759;BME280;10038;42.662;23.278;2022-10-17T12:10:21;73837.09;;;28.15;21.10
19759;BME280;10038;42.662;23.278;2022-10-17T12:12:50;73865.78;;;28.40;21.93
19759;BME280;10038;42.662;23.278;2022-10-17T12:15:28;74073.47;;;30.23;20.00
19759;BME280;10038;42.662;23.278;2022-10-17T12:17:56;74147.97;;;30.87;19.33
19759;BME280;10038;42.662;23.278;2022-10-17T12:20:31;74087.41;;;30.33;19.61
19759;BME280;10038;42.662;23.278;2022-10-17T12:23:04;74011.19;;;29.67;20.08
19759;BME280;10038;42.662;23.278;2022-10-17T12:25:33;74126.25;;;30.69;19.52
19759;BME280;10038;42.662;23.278;2022-10-17T12:28:13;73987.91;;;29.50;18.99
19759;BME280;10038;42.662;23.278;2022-10-17T12:30:58;73943.81;;;29.09;20.27
19759;BME280;10038;42.662;23.278;2022-10-17T12:33:30;73856.66;;;28.37;21.08
19759;BME280;10038;42.662;23.278;2022-10-17T12:36:36;73745.28;;;27.38;21.86
19759;BME280;10038;42.662;23.278;2022-10-17T12:42:46;73755.69;;;27.45;22.04
19759;BME280;10038;42.662;23.278;2022-10-17T12:45:44;73716.03;;;27.13;22.43
19759;BME280;10038;42.662;23.278;2022-10-17T12:48:11;73811.44;;;27.95;21.71
19759;BME280;10038;42.662;23.278;2022-10-17T12:51:00;73742.81;;;27.34;22.55
19759;BME280;10038;42.662;23.278;2022-10-17T12:53:35;73695.41;;;26.93;22.50
19759;BME280;10038;42.662;23.278;2022-10-17T12:56:04;73739.28;;;27.31;22.71
19759;BME280;10038;42.662;23.278;2022-10-17T12:58:33;73711.22;;;27.07;22.56
19759;BME280;10038;42.662;23.278;2022-10-17T13:01:01;73733.00;;;27.28;22.25
19759;BME280;10038;42.662;23.278;2022-10-17T13:03:31;73766.38;;;27.57;21.91
19759;BME280;10038;42.662;23.278;2022-10-17T13:06:00;73725.84;;;27.19;22.44
19759;BME280;10038;42.662;23.278;2022-10-17T13:08:31;73702.13;;;27.04;22.84
19759;BME280;10038;42.662;23.278;2022-10-17T13:10:59;73594.53;;;26.01;23.82
19759;BME280;10038;42.662;23.278;2022-10-17T13:13:36;73666.28;;;26.70;23.00
19759;BME280;10038;42.662;23.278;2022-10-17T13:16:05;73720.13;;;27.17;22.82
19759;BME280;10038;42.662;23.278;2022-10-17T13:18:32;73660.44;;;26.65;22.50
19759;BME280;10038;42.662;23.278;2022-10-17T13:21:00;73746.31;;;27.37;22.27
19759;BME280;10038;42.662;23.278;2022-10-17T13:23:33;73782.91;;;27.73;22.22
19759;BME280;10038;42.662;23.278;2022-10-17T13:26:05;73768.72;;;27.59;23.03